Time;durP1;ratioP1;P1;durP2;ratioP2;P2;SDS_P1;SDS_P2;PMS_P1;PMS_P2;Temp;Humidity;BMP_temperature;BMP_pressure;BME280_temperature;BME280_humidity;BME280_pressure;Samples;Min_cycle;Max_cycle;Signal;HPM_P1;HPM_P2
2022/07/16 00:01:24;;;;;;;1.00;0.77;;;19.10;53.30;21.30;94336.00;;;;10524972;28;45879;-60
2022/07/16 00:06:45;;;;;;;0.70;0.70;;;19.10;53.20;21.30;94327.00;;;;10524955;28;45790;-60
2022/07/16 00:12:07;;;;;;;0.70;0.63;;;19.20;53.20;21.30;94337.00;;;;10524660;28;45729;-60
2022/07/16 00:17:28;;;;;;;0.70;0.70;;;19.20;53.20;21.30;94328.00;;;;10524415;28;45970;-60
2022/07/16 00:22:48;;;;;;;0.80;0.65;;;19.10;53.20;21.30;94331.00;;;;10524820;28;45139;-60
2022/07/16 00:28:10;;;;;;;1.00;0.80;;;19.10;53.20;21.30;94329.00;;;;10524035;28;45168;-60
2022/07/16 00:33:31;;;;;;;0.95;0.80;;;19.20;53.30;21.30;94311.00;;;;10523788;28;45123;-61
2022/07/16 00:38:51;;;;;;;0.90;0.70;;;19.10;53.20;21.30;94318.00;;;;10523654;28;45554;-60
2022/07/16 00:44:15;;;;;;;0.60;0.60;;;19.10;53.10;21.30;94313.00;;;;10523926;28;45681;-60
2022/07/16 00:49:36;;;;;;;0.82;0.70;;;19.10;53.20;21.30;94310.00;;;;10523198;27;45195;-60
2022/07/16 00:54:56;;;;;;;1.02;0.73;;;19.10;53.10;21.30;94329.00;;;;10523380;28;45670;-60
2022/07/16 01:00:19;;;;;;;0.65;0.65;;;19.10;53.20;21.20;94323.00;;;;10518914;28;45251;-61
2022/07/16 01:05:39;;;;;;;1.38;0.80;;;19.10;53.20;21.20;94306.00;;;;10519279;28;45852;-61
2022/07/16 01:11:02;;;;;;;1.20;0.70;;;19.10;53.30;21.20;94312.00;;;;10523060;28;45137;-60
2022/07/16 01:16:23;;;;;;;0.90;0.70;;;19.10;53.30;21.20;94296.00;;;;10522383;28;45138;-60
2022/07/16 01:21:44;;;;;;;0.80;0.68;;;19.00;53.10;21.20;94306.00;;;;10523088;28;45350;-60
2022/07/16 01:27:06;;;;;;;0.70;0.60;;;19.00;53.20;21.20;94307.00;;;;10522434;28;45184;-61
2022/07/16 01:32:27;;;;;;;0.63;0.57;;;19.10;53.30;21.20;94309.00;;;;10521652;28;45158;-60
2022/07/16 01:37:47;;;;;;;0.90;0.73;;;19.10;53.30;21.20;94291.00;;;;10521666;28;45178;-60
2022/07/16 01:43:15;;;;;;;0.93;0.80;;;19.00;53.20;21.20;94304.00;;;;10521857;28;45185;-61
2022/07/16 01:48:37;;;;;;;0.98;0.80;;;19.00;53.20;21.20;94314.00;;;;10521766;28;45902;-60
2022/07/16 01:53:57;;;;;;;0.93;0.80;;;19.00;53.20;21.20;94302.00;;;;10521356;28;45137;-60
2022/07/16 01:59:19;;;;;;;0.70;0.70;;;19.00;53.30;21.20;94305.00;;;;10520537;27;45236;-60
2022/07/16 02:04:41;;;;;;;1.00;0.70;;;19.00;53.20;21.10;94283.00;;;;10521163;28;45851;-61
2022/07/16 02:10:02;;;;;;;0.80;0.80;;;19.00;53.20;21.10;94297.00;;;;10520776;28;45187;-60
2022/07/16 02:15:24;;;;;;;0.82;0.70;;;19.00;53.30;21.10;94292.00;;;;10520726;28;45240;-61
2022/07/16 02:20:45;;;;;;;1.02;0.70;;;19.00;53.30;21.10;94298.00;;;;10520580;28;45163;-60
2022/07/16 02:26:05;;;;;;;0.93;0.80;;;19.00;53.20;21.10;94300.00;;;;10520239;28;45177;-60
2022/07/16 02:31:27;;;;;;;0.80;0.63;;;19.00;53.20;21.10;94292.00;;;;10519949;28;45165;-61
2022/07/16 02:36:48;;;;;;;0.90;0.70;;;18.90;53.20;21.10;94297.00;;;;10519760;28;45900;-61
2022/07/16 02:42:09;;;;;;;0.60;0.60;;;19.00;53.20;21.10;94284.00;;;;10520140;28;45109;-60
2022/07/16 02:47:30;;;;;;;1.13;0.70;;;19.00;53.20;21.10;94288.00;;;;10519746;28;45240;-61
2022/07/16 02:52:51;;;;;;;0.82;0.80;;;18.90;53.20;21.10;94286.00;;;;10519914;28;45286;-60
2022/07/16 02:58:11;;;;;;;0.60;0.60;;;19.00;53.20;21.10;94284.00;;;;10519525;28;45934;-60
2022/07/16 03:03:33;;;;;;;0.70;0.70;;;18.90;53.20;21.10;94285.00;;;;10519402;28;45375;-60
2022/07/16 03:08:54;;;;;;;0.70;0.70;;;18.90;53.20;21.10;94283.00;;;;10519223;28;45294;-60
2022/07/16 03:14:14;;;;;;;0.65;0.60;;;18.90;53.10;21.10;94282.00;;;;10518699;28;45889;-61
2022/07/16 03:19:36;;;;;;;0.70;0.60;;;18.90;53.10;21.10;94275.00;;;;10518904;28;45709;-60
2022/07/16 03:24:57;;;;;;;1.35;0.90;;;19.00;53.10;21.10;94294.00;;;;10518870;28;45239;-59
2022/07/16 03:30:18;;;;;;;0.75;0.63;;;18.90;53.10;21.10;94295.00;;;;10518211;28;45111;-59
2022/07/16 03:35:39;;;;;;;0.88;0.70;;;18.90;53.10;21.10;94294.00;;;;10519778;28;45137;-60
2022/07/16 03:40:59;;;;;;;0.60;0.60;;;18.90;53.10;21.00;94291.00;;;;10519204;28;45774;-60
2022/07/16 03:46:20;;;;;;;0.98;0.80;;;18.90;53.10;21.00;94286.00;;;;10519002;28;45194;-60
2022/07/16 03:51:42;;;;;;;0.80;0.70;;;18.90;53.10;21.00;94297.00;;;;10518935;28;45140;-60
2022/07/16 03:57:03;;;;;;;0.75;0.68;;;18.90;53.10;21.00;94292.00;;;;10518268;28;45207;-61
2022/07/16 04:02:24;;;;;;;0.43;0.43;;;18.90;53.10;21.00;94287.00;;;;10518648;28;45200;-61
2022/07/16 04:07:46;;;;;;;0.98;0.75;;;18.90;53.10;21.00;94286.00;;;;10518349;28;45943;-60
2022/07/16 04:13:06;;;;;;;0.73;0.73;;;18.90;53.00;21.00;94297.00;;;;10518431;28;45686;-60
2022/07/16 04:18:27;;;;;;;0.70;0.63;;;18.80;52.90;21.00;94305.00;;;;10517587;28;45191;-61
2022/07/16 04:23:49;;;;;;;0.80;0.70;;;18.90;53.10;21.00;94306.00;;;;10521115;27;45315;-61
2022/07/16 04:29:09;;;;;;;0.70;0.65;;;18.80;52.90;21.00;94313.00;;;;10524430;28;45689;-61
2022/07/16 04:34:30;;;;;;;0.63;0.60;;;18.80;52.90;21.00;94326.00;;;;10523944;28;45228;-60
2022/07/16 04:39:52;;;;;;;1.42;0.75;;;18.90;53.00;21.00;94308.00;;;;10524194;28;45159;-61
2022/07/16 04:45:14;;;;;;;1.25;0.82;;;18.80;53.00;21.00;94307.00;;;;10524117;28;45235;-61
2022/07/16 04:50:35;;;;;;;0.98;0.70;;;18.80;52.90;21.00;94306.00;;;;10524002;28;45198;-60
2022/07/16 04:55:56;;;;;;;0.80;0.70;;;18.80;53.00;21.00;94327.00;;;;10523572;28;45227;-61
2022/07/16 05:01:17;;;;;;;0.75;0.60;;;18.80;53.00;21.00;94327.00;;;;10522971;28;45116;-60
2022/07/16 05:06:38;;;;;;;0.80;0.80;;;18.80;53.00;21.00;94331.00;;;;10523790;28;45220;-60
2022/07/16 05:12:00;;;;;;;1.45;0.70;;;18.80;52.90;20.90;94312.00;;;;10523196;28;45193;-60
2022/07/16 05:17:21;;;;;;;0.73;0.60;;;18.80;53.00;21.00;94337.00;;;;10522772;28;45136;-60
2022/07/16 05:22:42;;;;;;;1.00;0.68;;;18.80;53.00;21.00;94323.00;;;;10522813;28;45666;-61
2022/07/16 05:28:04;;;;;;;1.23;0.80;;;18.80;53.00;20.90;94313.00;;;;10522486;28;45194;-60
2022/07/16 05:33:25;;;;;;;1.10;0.60;;;18.80;53.00;20.90;94334.00;;;;10522619;27;45256;-61
2022/07/16 05:38:45;;;;;;;0.52;0.52;;;18.80;53.00;20.90;94327.00;;;;10521727;28;45188;-60
2022/07/16 05:44:07;;;;;;;0.77;0.60;;;18.80;53.00;21.00;94337.00;;;;10522252;28;45251;-61
2022/07/16 05:49:28;;;;;;;0.82;0.70;;;18.80;53.00;21.00;94339.00;;;;10522129;28;45867;-60
2022/07/16 05:54:48;;;;;;;1.13;0.60;;;18.80;53.00;21.00;94341.00;;;;10520669;28;45177;-60
2022/07/16 06:00:13;;;;;;;2.05;1.00;;;18.80;53.00;20.90;94335.00;;;;10522030;28;45136;-60
2022/07/16 06:05:33;;;;;;;1.75;1.00;;;18.80;49.30;20.90;94341.00;;;;10521850;28;45168;-62
2022/07/16 06:10:54;;;;;;;2.05;1.00;;;18.70;50.70;20.90;94342.00;;;;10521824;28;45263;-63
2022/07/16 06:16:16;;;;;;;2.35;0.85;;;18.80;51.00;20.90;94333.00;;;;10521464;28;45674;-62
2022/07/16 06:21:37;;;;;;;2.15;0.90;;;18.80;51.70;21.00;94362.00;;;;10520481;28;45191;-62
2022/07/16 06:26:57;;;;;;;1.23;0.77;;;18.80;51.20;21.00;94371.00;;;;10521194;28;45202;-62
2022/07/16 06:32:19;;;;;;;1.92;1.02;;;18.80;51.30;21.00;94372.00;;;;10520634;28;45677;-62
2022/07/16 06:37:40;;;;;;;1.70;0.85;;;18.80;51.50;21.00;94371.00;;;;10520794;28;45206;-62
2022/07/16 06:43:00;;;;;;;1.00;0.80;;;18.80;51.60;21.00;94364.00;;;;10520910;28;45794;-62
2022/07/16 06:48:22;;;;;;;2.65;0.90;;;18.80;51.70;21.00;94371.00;;;;10520277;27;45185;-63
2022/07/16 06:53:42;;;;;;;1.42;0.90;;;18.80;51.80;21.00;94367.00;;;;10518910;28;45186;-62
2022/07/16 06:59:04;;;;;;;2.45;0.73;;;18.80;51.90;21.00;94365.00;;;;10520144;28;45162;-63
2022/07/16 07:04:26;;;;;;;1.42;0.77;;;18.80;52.00;21.00;94356.00;;;;10520231;28;45385;-63
2022/07/16 07:09:46;;;;;;;1.00;0.80;;;18.80;52.00;21.00;94366.00;;;;10520561;28;45184;-63
2022/07/16 07:15:09;;;;;;;1.60;0.90;;;18.80;52.70;20.90;94376.00;;;;10520162;28;45184;-62
2022/07/16 07:20:31;;;;;;;1.38;0.80;;;18.80;52.10;21.00;94376.00;;;;10520078;28;45266;-62
2022/07/16 07:25:51;;;;;;;1.10;0.85;;;18.80;52.80;21.00;94377.00;;;;10519634;28;45756;-63
2022/07/16 07:31:12;;;;;;;1.15;0.73;;;18.80;52.10;20.90;94384.00;;;;10519387;28;45113;-62
2022/07/16 07:36:34;;;;;;;0.70;0.70;;;18.80;52.20;21.00;94373.00;;;;10519522;28;45133;-63
2022/07/16 07:41:54;;;;;;;0.90;0.80;;;18.80;52.30;20.90;94373.00;;;;10519336;28;45422;-63
2022/07/16 07:47:15;;;;;;;0.95;0.90;;;18.80;52.30;20.90;94371.00;;;;10519314;28;45728;-62
2022/07/16 07:52:37;;;;;;;1.33;0.90;;;18.80;52.30;20.90;94369.00;;;;10519371;28;45126;-62
2022/07/16 07:57:58;;;;;;;1.20;0.90;;;18.80;52.30;20.90;94355.00;;;;10520826;27;45225;-63
2022/07/16 08:03:19;;;;;;;1.80;0.90;;;18.80;52.40;20.90;94365.00;;;;10526079;28;45764;-62
2022/07/16 08:08:40;;;;;;;0.98;0.73;;;18.80;52.40;20.90;94370.00;;;;10526127;28;45717;-62
2022/07/16 08:14:01;;;;;;;1.42;0.90;;;18.80;52.50;20.90;94366.00;;;;10526227;28;45686;-62
2022/07/16 08:19:21;;;;;;;0.98;0.80;;;18.80;52.40;20.90;94383.00;;;;10525835;28;45302;-63
2022/07/16 08:30:22;;;;;;;0.70;0.70;;;18.80;52.50;20.90;94379.00;;;;10482965;28;45125;-63
2022/07/16 08:35:44;;;;;;;1.25;0.65;;;18.80;52.50;20.90;94376.00;;;;10482608;28;45672;-62
2022/07/16 08:41:06;;;;;;;0.80;0.70;;;18.80;52.50;20.90;94364.00;;;;10482205;28;45186;-62
2022/07/16 08:46:28;;;;;;;0.98;0.80;;;18.80;52.60;20.90;94362.00;;;;10482422;28;45164;-63
2022/07/16 08:51:50;;;;;;;1.30;0.88;;;18.80;52.60;20.90;94371.00;;;;10481786;28;45155;-63
2022/07/16 08:57:12;;;;;;;0.70;0.70;;;18.80;52.60;20.90;94375.00;;;;10482032;28;45300;-62
2022/07/16 09:02:32;;;;;;;0.93;0.73;;;18.80;52.60;20.90;94378.00;;;;10481477;28;45112;-62
2022/07/16 09:07:53;;;;;;;0.80;0.80;;;18.80;52.60;20.90;94382.00;;;;10480605;28;45789;-62
2022/07/16 09:13:15;;;;;;;0.90;0.70;;;18.80;52.60;20.90;94385.00;;;;10480838;28;45698;-63
2022/07/16 09:18:36;;;;;;;1.77;0.85;;;18.80;52.60;21.00;94395.00;;;;10481075;28;45764;-62
2022/07/16 09:23:57;;;;;;;0.77;0.70;;;18.80;52.60;20.90;94389.00;;;;10480630;28;45197;-62
2022/07/16 09:29:18;;;;;;;1.02;0.70;;;18.80;52.60;20.90;94393.00;;;;10480126;28;45180;-63
2022/07/16 09:34:39;;;;;;;0.60;0.60;;;18.80;52.60;21.00;94381.00;;;;10480920;28;45146;-62
2022/07/16 09:39:59;;;;;;;1.05;0.70;;;18.80;52.60;20.90;94389.00;;;;10480019;28;45216;-62
2022/07/16 09:45:22;;;;;;;0.95;0.82;;;18.80;52.60;20.90;94395.00;;;;10479914;28;45391;-62
2022/07/16 09:50:43;;;;;;;1.58;0.60;;;18.80;52.70;20.90;94376.00;;;;10480012;28;45124;-62
2022/07/16 09:56:06;;;;;;;1.13;0.80;;;18.80;52.60;20.90;94376.00;;;;10515795;28;45181;-62
2022/07/16 10:01:28;;;;;;;0.85;0.70;;;18.80;52.60;21.00;94392.00;;;;10521450;28;45686;-62
2022/07/16 10:06:48;;;;;;;0.50;0.50;;;18.80;52.60;20.90;94384.00;;;;10521661;28;45662;-62
2022/07/16 10:12:12;;;;;;;0.77;0.65;;;18.80;52.60;20.90;94387.00;;;;10521603;28;45437;-62
2022/07/16 10:17:37;;;;;;;0.80;0.60;;;18.80;52.70;20.90;94383.00;;;;10520822;28;45209;-62
2022/07/16 10:22:57;;;;;;;0.65;0.60;;;18.80;52.70;20.90;94393.00;;;;10520422;27;45795;-62
2022/07/16 10:28:41;;;;;;;0.70;0.70;;;18.80;52.70;21.00;94385.00;;;;10521204;28;45161;-62
2022/07/16 10:34:40;;;;;;;0.70;0.63;;;18.80;52.70;21.00;94384.00;;;;10520422;28;45199;-62
2022/07/16 10:40:07;;;;;;;1.02;0.68;;;18.80;52.70;20.90;94392.00;;;;10503149;28;45127;-62
2022/07/16 10:45:49;;;;;;;;;;;18.80;52.70;21.00;94381.00;;;;10521432;28;45177;-62
2022/07/16 10:51:15;;;;;;;0.73;0.70;;;18.80;52.70;20.90;94377.00;;;;10492945;28;45746;-62
2022/07/16 10:56:39;;;;;;;0.85;0.70;;;18.80;52.80;20.90;94365.00;;;;10510210;28;45260;-62
2022/07/16 11:02:02;;;;;;;0.82;0.70;;;18.80;52.80;20.90;94369.00;;;;10477831;28;45212;-62
2022/07/16 11:07:24;;;;;;;1.33;0.60;;;18.80;52.80;20.90;94359.00;;;;10477413;28;45738;-62
2022/07/16 11:12:44;;;;;;;1.15;0.70;;;18.80;52.80;21.00;94365.00;;;;10477972;28;45914;-62
2022/07/16 11:18:15;;;;;;;0.80;0.60;;;18.80;52.80;21.00;94362.00;;;;10477607;28;45238;-62
2022/07/16 11:23:49;;;;;;;0.95;0.80;;;18.80;52.80;20.90;94360.00;;;;10476968;28;45261;-62
2022/07/16 11:29:09;;;;;;;0.60;0.60;;;18.80;52.80;21.00;94360.00;;;;10477303;28;45907;-62
2022/07/16 11:34:34;;;;;;;0.47;0.47;;;18.80;52.80;21.00;94355.00;;;;10482526;28;45321;-62
2022/07/16 11:40:00;;;;;;;0.80;0.60;;;18.80;52.90;21.00;94359.00;;;;10484401;28;45128;-62
2022/07/16 11:45:21;;;;;;;0.70;0.70;;;18.80;52.80;21.00;94350.00;;;;10484439;28;45133;-62
2022/07/16 11:50:43;;;;;;;0.68;0.60;;;18.80;52.80;21.00;94368.00;;;;10484318;28;45206;-62
2022/07/16 11:56:06;;;;;;;0.95;0.73;;;18.80;52.80;21.00;94367.00;;;;10484066;28;45189;-61
2022/07/16 12:01:31;;;;;;;1.48;0.70;;;18.80;52.80;21.00;94356.00;;;;10483328;28;45244;-62
2022/07/16 12:06:51;;;;;;;0.60;0.50;;;18.80;52.80;21.00;94364.00;;;;10484002;28;45236;-62
2022/07/16 12:12:17;;;;;;;0.63;0.60;;;18.90;52.80;21.00;94364.00;;;;10483668;28;45145;-62
2022/07/16 12:17:39;;;;;;;0.50;0.50;;;18.90;52.80;21.10;94364.00;;;;10482674;28;45241;-62
2022/07/16 12:23:04;;;;;;;0.70;0.52;;;18.90;52.80;21.10;94347.00;;;;10483070;28;45200;-62
2022/07/16 12:28:26;;;;;;;0.93;0.60;;;18.90;52.80;21.10;94362.00;;;;10482512;28;45781;-62
2022/07/16 12:33:52;;;;;;;0.65;0.65;;;18.90;52.70;21.10;94354.00;;;;10483075;28;45415;-62
2022/07/16 12:39:20;;;;;;;0.60;0.57;;;18.90;52.70;21.10;94356.00;;;;10482880;28;45120;-62
2022/07/16 12:44:42;;;;;;;0.60;0.50;;;18.90;52.70;21.10;94359.00;;;;10481941;28;45780;-62
2022/07/16 12:50:04;;;;;;;0.60;0.60;;;19.00;52.70;21.10;94351.00;;;;10482426;28;45864;-62
2022/07/16 13:01:04;;;;;;;0.90;0.60;;;19.00;52.70;21.20;94361.00;;;;10482142;28;45116;-62
2022/07/16 13:06:26;;;;;;;0.70;0.68;;;19.00;52.70;21.20;94362.00;;;;10480159;28;45768;-62
2022/07/16 13:11:47;;;;;;;0.70;0.65;;;19.00;52.70;21.20;94360.00;;;;10475966;28;45424;-62
2022/07/16 13:17:09;;;;;;;0.70;0.60;;;19.10;52.70;21.20;94345.00;;;;10477850;28;45706;-64
2022/07/16 13:22:29;;;;;;;0.65;0.50;;;19.10;52.60;21.20;94355.00;;;;10479227;28;45767;-62
2022/07/16 13:27:50;;;;;;;0.60;0.50;;;19.10;52.60;21.30;94358.00;;;;10481065;28;45662;-63
2022/07/16 13:33:12;;;;;;;0.50;0.50;;;19.10;52.60;21.30;94342.00;;;;10481590;28;45205;-63
2022/07/16 13:38:33;;;;;;;0.93;0.70;;;19.10;52.50;21.30;94366.00;;;;10494868;28;46523;-62
2022/07/16 13:43:54;;;;;;;0.60;0.60;;;19.20;52.60;21.30;94364.00;;;;10492531;28;45212;-63
2022/07/16 13:49:16;;;;;;;0.88;0.60;;;19.20;52.50;21.30;94356.00;;;;10520635;28;45211;-63
2022/07/16 13:54:36;;;;;;;0.90;0.70;;;19.20;52.50;21.40;94343.00;;;;10521517;27;45228;-62
2022/07/16 13:59:56;;;;;;;0.90;0.80;;;19.20;52.50;21.40;94356.00;;;;10522025;28;45880;-62
2022/07/16 14:05:19;;;;;;;0.50;0.50;;;19.20;52.50;21.40;94333.00;;;;10522366;28;45201;-62
2022/07/16 14:10:40;;;;;;;0.80;0.70;;;19.30;52.50;21.40;94348.00;;;;10521792;28;45185;-63
2022/07/16 14:16:00;;;;;;;1.15;0.63;;;19.30;52.50;21.40;94346.00;;;;10521769;28;45793;-63
2022/07/16 14:21:22;;;;;;;0.82;0.60;;;19.30;52.40;21.40;94347.00;;;;10521444;28;45182;-62
2022/07/16 14:26:43;;;;;;;0.82;0.70;;;19.30;52.40;21.40;94355.00;;;;10521742;28;45140;-62
2022/07/16 14:32:04;;;;;;;0.90;0.70;;;19.30;52.40;21.50;94329.00;;;;10520917;28;45135;-63
2022/07/16 14:37:26;;;;;;;0.57;0.57;;;19.30;52.40;21.50;94331.00;;;;10521132;28;45259;-63
2022/07/16 14:42:48;;;;;;;0.98;0.70;;;19.30;52.30;21.50;94354.00;;;;10520931;28;45539;-63
2022/07/16 14:48:09;;;;;;;0.68;0.57;;;19.40;52.30;21.50;94348.00;;;;10514867;28;45671;-62
2022/07/16 14:53:31;;;;;;;0.52;0.52;;;19.40;52.30;21.50;94353.00;;;;10493601;28;45509;-63
2022/07/16 14:58:52;;;;;;;0.90;0.60;;;19.40;52.30;21.60;94344.00;;;;10478391;28;45814;-63
2022/07/16 15:04:12;;;;;;;0.82;0.70;;;19.40;52.30;21.60;94354.00;;;;10484150;28;45137;-63
2022/07/16 15:09:34;;;;;;;0.65;0.60;;;19.40;52.30;21.60;94353.00;;;;10519376;27;45868;-63
2022/07/16 15:14:55;;;;;;;0.40;0.40;;;19.50;52.30;21.60;94346.00;;;;10518541;28;45212;-63
2022/07/16 15:20:16;;;;;;;0.65;0.55;;;19.50;52.20;21.70;94349.00;;;;10519850;28;45228;-62
2022/07/16 15:25:39;;;;;;;0.90;0.65;;;19.50;52.20;21.70;94347.00;;;;10521315;28;46372;-63
2022/07/16 15:36:02;;;;;;;0.50;0.50;;;19.50;52.20;21.70;94341.00;;;;10434560;28;45148;-68
2022/07/16 15:41:24;;;;;;;0.73;0.60;;;19.60;52.20;21.70;94338.00;;;;10436876;28;45271;-68
2022/07/16 15:46:45;;;;;;;0.95;0.52;;;19.60;52.10;21.80;94346.00;;;;10473873;28;45522;-68
2022/07/16 15:52:06;;;;;;;0.50;0.50;;;19.70;52.20;21.80;94360.00;;;;10477434;28;45274;-67
2022/07/16 15:57:28;;;;;;;0.60;0.60;;;19.70;52.10;21.80;94349.00;;;;10477107;28;45157;-68
2022/07/16 16:02:48;;;;;;;0.80;0.60;;;19.80;52.10;21.90;94352.00;;;;10477210;28;45111;-67
2022/07/16 16:08:09;;;;;;;0.75;0.57;;;19.70;52.00;21.90;94355.00;;;;10477085;28;45201;-67
2022/07/16 16:13:31;;;;;;;0.70;0.50;;;19.70;52.00;21.90;94356.00;;;;10477313;28;45348;-68
2022/07/16 16:18:52;;;;;;;0.63;0.60;;;19.80;52.00;21.90;94356.00;;;;10478587;28;45182;-67
2022/07/16 16:24:12;;;;;;;0.52;0.50;;;19.80;52.00;22.00;94344.00;;;;10484651;28;45479;-67
2022/07/16 16:29:34;;;;;;;0.70;0.60;;;19.80;52.00;22.00;94349.00;;;;10483732;28;45868;-68
2022/07/16 16:34:56;;;;;;;0.47;0.40;;;19.80;52.00;22.00;94338.00;;;;10483541;28;45185;-67
2022/07/16 16:40:16;;;;;;;0.50;0.43;;;19.90;51.90;22.00;94358.00;;;;10483804;28;45160;-67
2022/07/16 16:45:38;;;;;;;2.05;1.15;;;19.90;51.90;21.80;94353.00;;;;10469452;28;45812;-64
2022/07/16 16:50:59;;;;;;;1.85;1.13;;;19.80;50.60;21.80;94353.00;;;;10473953;28;45158;-65
2022/07/16 16:56:19;;;;;;;2.70;1.27;;;19.70;50.60;21.80;94355.00;;;;10466884;28;45203;-65
2022/07/16 17:01:41;;;;;;;5.00;2.70;;;19.70;50.90;21.80;94364.00;;;;10481789;28;45097;-66
2022/07/16 17:07:02;;;;;;;3.90;2.50;;;19.70;50.90;21.80;94358.00;;;;10475589;28;45383;-66
2022/07/16 17:12:23;;;;;;;3.35;2.00;;;19.70;50.60;21.80;94362.00;;;;10437441;28;45233;-66
2022/07/16 17:17:45;;;;;;;3.00;2.10;;;19.70;49.80;21.80;94370.00;;;;10440213;28;45236;-66
2022/07/16 17:23:05;;;;;;;2.20;1.63;;;19.70;49.30;21.80;94373.00;;;;10439196;28;45193;-67
2022/07/16 17:28:26;;;;;;;2.20;1.60;;;19.70;49.40;21.90;94369.00;;;;10439740;28;45199;-66
2022/07/16 17:33:48;;;;;;;2.55;1.50;;;19.70;49.30;22.00;94369.00;;;;10453306;28;45681;-66
2022/07/16 17:39:08;;;;;;;2.97;1.13;;;19.80;48.70;22.00;94379.00;;;;10481229;28;45356;-67
2022/07/16 17:44:30;;;;;;;1.75;1.20;;;19.90;48.70;22.00;94385.00;;;;10481220;28;45191;-66
2022/07/16 17:49:54;;;;;;;1.75;1.15;;;19.90;48.70;22.00;94379.00;;;;10481080;28;45089;-66
2022/07/16 17:55:15;;;;;;;1.73;1.27;;;19.90;49.10;22.00;94395.00;;;;10476784;28;45176;-66
2022/07/16 18:00:37;;;;;;;2.83;1.23;;;19.80;48.80;21.90;94384.00;;;;10476244;28;45682;-67
2022/07/16 18:05:59;;;;;;;1.77;1.25;;;19.80;49.00;21.90;94400.00;;;;10480135;28;45848;-66
2022/07/16 18:11:19;;;;;;;1.27;1.00;;;19.80;48.80;21.90;94401.00;;;;10463743;28;45302;-66
2022/07/16 18:16:42;;;;;;;2.08;1.40;;;19.80;49.00;21.80;94391.00;;;;10438133;28;45690;-66
2022/07/16 18:22:04;;;;;;;3.10;2.10;;;19.70;48.80;21.80;94400.00;;;;10437841;28;45790;-66
2022/07/16 18:27:25;;;;;;;2.70;2.30;;;19.70;48.60;21.80;94401.00;;;;10437539;28;45267;-66
2022/07/16 18:32:45;;;;;;;2.25;1.70;;;19.60;48.40;21.70;94423.00;;;;10437063;28;45714;-66
2022/07/16 18:38:07;;;;;;;2.42;1.77;;;19.60;48.50;21.70;94434.00;;;;10437674;28;45858;-67
2022/07/16 18:43:28;;;;;;;2.38;1.75;;;19.60;48.80;21.70;94432.00;;;;10437889;28;45224;-67
2022/07/16 18:48:48;;;;;;;3.03;2.20;;;19.50;48.40;21.60;94441.00;;;;10437786;28;45178;-66
2022/07/16 18:54:10;;;;;;;4.93;2.97;;;19.50;48.40;21.60;94445.00;;;;10474615;28;45161;-68
2022/07/16 18:59:34;;;;;;;3.83;2.80;;;19.40;48.30;21.60;94443.00;;;;10477056;28;45756;-66
2022/07/16 19:04:54;;;;;;;3.50;2.38;;;19.40;47.30;21.50;94450.00;;;;10479021;28;45186;-66
2022/07/16 19:10:16;;;;;;;4.25;2.60;;;19.40;48.00;21.50;94460.00;;;;10478840;28;45266;-66
2022/07/16 19:15:36;;;;;;;3.38;2.25;;;19.30;47.60;21.50;94471.00;;;;10478170;28;45782;-66
2022/07/16 19:20:57;;;;;;;4.60;2.45;;;19.30;47.60;21.50;94467.00;;;;10478238;28;45756;-66
2022/07/16 19:26:23;;;;;;;3.10;2.00;;;19.30;47.60;21.50;94480.00;;;;10477929;28;45722;-66
2022/07/16 19:31:44;;;;;;;3.22;1.73;;;19.30;47.00;21.40;94480.00;;;;10478235;28;45247;-65
2022/07/16 19:37:05;;;;;;;3.35;1.73;;;19.30;45.20;21.40;94469.00;;;;10477853;28;45786;-65
2022/07/16 19:42:27;;;;;;;3.67;1.90;;;19.30;45.80;21.40;94489.00;;;;10477843;28;45706;-65
2022/07/16 19:47:48;;;;;;;3.25;1.92;;;19.20;45.20;21.30;94497.00;;;;10477528;28;45132;-65
2022/07/16 19:53:08;;;;;;;2.45;1.65;;;19.20;45.70;21.30;94495.00;;;;10479894;28;45090;-66
2022/07/16 19:58:30;;;;;;;2.10;1.30;;;19.20;45.10;21.30;94513.00;;;;10484968;28;45255;-66
2022/07/16 20:03:51;;;;;;;2.15;1.35;;;19.10;44.90;21.30;94522.00;;;;10482562;28;45298;-65
2022/07/16 20:09:11;;;;;;;1.73;0.98;;;19.10;46.10;21.20;94518.00;;;;10483856;28;45125;-66
2022/07/16 20:14:34;;;;;;;1.60;0.82;;;19.10;44.80;21.20;94524.00;;;;10484061;28;45130;-65
2022/07/16 20:19:55;;;;;;;1.00;0.80;;;19.10;45.50;21.20;94552.00;;;;10484291;28;45259;-65
2022/07/16 20:25:16;;;;;;;1.00;0.73;;;19.10;45.50;21.20;94546.00;;;;10483557;28;45208;-66
2022/07/16 20:30:38;;;;;;;0.85;0.60;;;19.10;45.80;21.20;94546.00;;;;10483374;28;45289;-65
2022/07/16 20:35:59;;;;;;;1.38;0.73;;;19.00;45.50;21.20;94574.00;;;;10483554;28;45174;-65
2022/07/16 20:41:20;;;;;;;1.23;0.70;;;19.00;45.80;21.10;94574.00;;;;10483513;28;45894;-65
2022/07/16 20:46:42;;;;;;;1.35;0.70;;;19.00;45.50;21.10;94580.00;;;;10483217;28;45027;-65
2022/07/16 20:52:03;;;;;;;1.13;0.70;;;19.00;45.50;21.10;94581.00;;;;10482817;28;45156;-66
2022/07/16 20:57:23;;;;;;;0.60;0.50;;;19.00;45.80;21.10;94585.00;;;;10482809;28;45190;-65
2022/07/16 21:02:45;;;;;;;1.38;0.73;;;18.90;44.90;21.10;94585.00;;;;10482675;28;45234;-65
2022/07/16 21:08:06;;;;;;;1.42;0.60;;;18.90;45.40;21.10;94583.00;;;;10481194;28;45505;-65
2022/07/16 21:13:27;;;;;;;1.40;0.82;;;18.90;45.50;21.00;94599.00;;;;10482381;28;45795;-67
2022/07/16 21:18:49;;;;;;;1.15;0.70;;;18.90;44.90;21.00;94605.00;;;;10482236;28;45756;-66
2022/07/16 21:24:09;;;;;;;1.10;0.80;;;18.90;44.80;21.00;94605.00;;;;10482043;28;45177;-67
2022/07/16 21:29:30;;;;;;;1.73;0.88;;;18.90;45.00;21.00;94612.00;;;;10486865;28;45788;-66
2022/07/16 21:34:52;;;;;;;1.40;0.70;;;18.90;44.70;21.00;94613.00;;;;10533220;22;45466;-60
2022/07/16 21:40:13;;;;;;;1.10;0.60;;;18.80;44.80;21.00;94615.00;;;;10523357;28;45215;-60
2022/07/16 21:45:34;;;;;;;1.65;0.73;;;18.80;45.10;21.00;94614.00;;;;10522207;28;45812;-61
2022/07/16 21:50:55;;;;;;;2.65;0.90;;;18.80;45.40;21.00;94619.00;;;;10522636;28;45336;-61
2022/07/16 21:56:16;;;;;;;1.35;0.70;;;18.80;45.40;20.90;94622.00;;;;10521896;28;45300;-61
2022/07/16 22:01:37;;;;;;;0.90;0.70;;;18.80;45.10;20.90;94624.00;;;;10521921;28;45777;-61
2022/07/16 22:06:59;;;;;;;1.98;0.90;;;18.80;44.90;20.90;94631.00;;;;10521593;28;45094;-61
2022/07/16 22:12:20;;;;;;;1.67;0.77;;;18.80;44.80;20.90;94636.00;;;;10521433;28;45876;-61
2022/07/16 22:17:41;;;;;;;1.27;0.70;;;18.80;44.60;20.90;94641.00;;;;10520103;27;45094;-61
2022/07/16 22:23:03;;;;;;;1.30;0.77;;;18.80;44.70;20.90;94643.00;;;;10521955;28;45156;-60
2022/07/16 22:28:24;;;;;;;1.08;0.70;;;18.80;44.50;20.90;94635.00;;;;10521322;28;45367;-61
2022/07/16 22:33:44;;;;;;;1.50;0.80;;;18.80;44.80;20.80;94643.00;;;;10520365;28;45156;-62
2022/07/16 22:39:06;;;;;;;1.20;0.70;;;18.70;44.60;20.80;94654.00;;;;10520812;28;45266;-61
2022/07/16 22:44:28;;;;;;;2.10;0.90;;;18.70;44.70;20.80;94641.00;;;;10520489;28;45842;-61
2022/07/16 22:49:48;;;;;;;0.65;0.60;;;18.70;44.50;20.80;94641.00;;;;10520285;28;45149;-61
2022/07/16 22:55:11;;;;;;;1.15;0.70;;;18.70;44.30;20.80;94638.00;;;;10519852;28;45252;-60
2022/07/16 23:00:31;;;;;;;1.23;0.68;;;18.70;44.10;20.80;94647.00;;;;10520361;28;45198;-61
2022/07/16 23:05:52;;;;;;;1.23;0.75;;;18.70;43.70;20.80;94626.00;;;;10519619;28;45159;-61
2022/07/16 23:11:14;;;;;;;1.52;0.80;;;18.70;44.10;20.80;94644.00;;;;10520177;28;45378;-62
2022/07/16 23:16:35;;;;;;;1.52;0.80;;;18.70;43.90;20.80;94650.00;;;;10519628;28;45201;-60
2022/07/16 23:21:55;;;;;;;2.33;0.85;;;18.70;44.10;20.80;94645.00;;;;10519474;28;45722;-62
2022/07/16 23:27:17;;;;;;;1.45;0.90;;;18.70;43.70;20.70;94647.00;;;;10519058;28;45250;-61
2022/07/16 23:32:37;;;;;;;1.15;0.80;;;18.60;43.40;20.70;94647.00;;;;10518806;28;45224;-61
2022/07/16 23:37:58;;;;;;;1.05;0.70;;;18.60;43.20;20.70;94647.00;;;;10519022;28;45241;-61
2022/07/16 23:43:20;;;;;;;1.25;0.82;;;18.60;43.20;20.70;94645.00;;;;10518588;28;45246;-61
2022/07/16 23:48:40;;;;;;;1.45;0.77;;;18.60;43.00;20.70;94630.00;;;;10518705;28;45850;-61